• Join FlightAware (Why Join?)
  • Login
  • US Flag 
03:18AM EDT


 

Airport Tracker/Info


-or-


 

Live Flight TrackerFlight Track Log ✈ PDT4373 ✈ 10-Oct-2013 ✈ KPHL - KBGM

Flight Track Log - Related Links

Times and Time Zones

All times are in EDT time to prevent confusion due to time zone crossing. See the PDT4373 flight status page for this flight to view local times or setup timezone preferences in your user account.

Time Position Orientation Groundspeed Altitude Reporting Facility
EDT Latitude Longitude Course Direction KTS MPH feet Rate Location/Type
09:54AM 39.8833 -75.2167 295° West 111 128 600  Level Philadelphia TRACON
09:56AM 39.9500 -75.1667 30° Northeast 141 162 3,900 1,320 Climbing Philadelphia TRACON
09:57AM 40.1236 -75.3178 311° West  Level Estimated
09:57AM 40.0000 -75.1667 360° North 187 215 5,200  Level Philadelphia TRACON
09:58AM 40.1865 -75.3372 311° West  Level Estimated
09:58AM 40.0500 -75.2000 333° Northwest 188 216 6,400  Level Philadelphia TRACON
09:59AM 40.2141 -75.4136 295° West  Level FlightAware Approximate
10:00AM 40.1633 -75.2689 335° Northwest 202 232 9,000  Level New York Center
10:01AM 40.1744 -75.3564 279° West 217 250 9,300 480 Climbing New York Center
10:02AM 40.1942 -75.4392 287° West 235 270 10,000 600 Climbing New York Center
10:03AM 40.2119 -75.5167 287° West 245 282 10,500 540 Climbing New York Center
10:04AM 40.2442 -75.5975 298° West 240 276 11,100 540 Climbing New York Center
10:05AM 40.2914 -75.6636 313° West 240 276 11,600 480 Climbing New York Center
10:06AM 40.3325 -75.7292 309° West 240 276 12,100 240 Climbing New York Center
10:07AM 40.3692 -75.7972 305° West 240 276 12,100  Level New York Center
10:08AM 40.4219 -75.8772 311° West 257 296 12,100  Level New York Center
10:09AM 40.4711 -75.9464 313° West 264 304 12,100  Level New York Center
10:10AM 40.5142 -76.0097 312° West 264 304 12,100  Level New York Center
10:11AM 40.5669 -76.0875 312° West 257 296 12,100  Level New York Center
10:12AM 40.6136 -76.1594 311° West 257 296 12,100  Level New York Center
10:13AM 40.6561 -76.2339 307° West 257 296 12,100  Level New York Center
10:14AM 40.7133 -76.2550 344° North 239 275 12,100  Level New York Center
10:15AM 40.7933 -76.2394 North 234 269 12,100  Level New York Center
10:16AM 40.8642 -76.2397 360° North 239 275 12,100  Level New York Center
10:17AM 40.9353 -76.2372 North 245 282 12,100 -60 Level New York Center
10:18AM 41.0042 -76.2317 North 250 288 12,000 -60 Descending New York Center
10:19AM 41.0711 -76.2261 North 250 288 12,000  Level New York Center
10:20AM 41.1400 -76.2233 North 250 288 12,000  Level New York Center
10:21AM 41.2008 -76.2144 North 250 288 12,000  Level New York Center
10:22AM 41.2683 -76.1978 11° North 245 282 12,000  Level New York Center
10:23AM 41.3414 -76.1953 North 245 282 12,000  Level New York Center
10:24AM 41.3975 -76.1944 North 240 276 12,000  Level New York Center
10:25AM 41.4769 -76.1897 North 240 276 12,000  Level New York Center
10:26AM 41.5356 -76.1806 North 234 269 12,000  Level New York Center
10:27AM 41.6006 -76.1747 North 234 269 12,000  Level New York Center
10:28AM 41.6717 -76.1694 North 234 269 12,000 -600 Level New York Center
10:29AM 41.7469 -76.1617 North 244 281 10,900 -1,260 Descending New York Center
10:30AM 41.8242 -76.1567 North 272 313 9,500 -1,560 Descending New York Center
10:31AM 41.8931 -76.1511 North 277 319 7,800 -1,740 Descending New York Center
10:32AM 41.9639 -76.1039 26° Northeast 261 300 6,100 -1,440 Descending New York Center
10:33AM 42.0258 -76.0669 24° Northeast 245 282 5,000 -900 Descending New York Center
10:34AM 42.0753 -76.0319 28° Northeast 240 276 4,300 -720 Descending New York Center
10:35AM 42.1186 -75.9989 29° Northeast 210 242 3,600 -660 Descending New York Center
10:36AM 42.1508 -75.9736 30° Northeast 169 194 3,000 -780 Descending New York Center
10:37AM 42.1806 -75.9619 16° North 127 146 2,100 -600 Descending New York Center
10:38AM 42.2169 -75.9367 27° Northeast 120 138 1,900 -240 Descending New York Center